sensor_id;sensor_type;location;lat;lon;timestamp;P1;durP1;ratioP1;P2;durP2;ratioP2
14118;SDS011;7138;49.246;9.100;2023-11-19T00:00:29;6.65;;;3.55;;
14118;SDS011;7138;49.246;9.100;2023-11-19T00:03:00;6.03;;;4.07;;
14118;SDS011;7138;49.246;9.100;2023-11-19T00:05:26;8.38;;;3.80;;
14118;SDS011;7138;49.246;9.100;2023-11-19T00:07:54;7.35;;;3.97;;
14118;SDS011;7138;49.246;9.100;2023-11-19T00:10:20;6.18;;;3.80;;
14118;SDS011;7138;49.246;9.100;2023-11-19T00:12:46;7.47;;;4.18;;
14118;SDS011;7138;49.246;9.100;2023-11-19T00:15:13;6.22;;;3.70;;
14118;SDS011;7138;49.246;9.100;2023-11-19T00:17:41;6.88;;;4.07;;
14118;SDS011;7138;49.246;9.100;2023-11-19T00:20:10;7.93;;;4.65;;
14118;SDS011;7138;49.246;9.100;2023-11-19T00:22:37;6.65;;;3.85;;
14118;SDS011;7138;49.246;9.100;2023-11-19T00:25:04;6.47;;;3.85;;
14118;SDS011;7138;49.246;9.100;2023-11-19T00:27:32;7.57;;;4.20;;
14118;SDS011;7138;49.246;9.100;2023-11-19T00:29:57;6.00;;;4.03;;
14118;SDS011;7138;49.246;9.100;2023-11-19T00:32:23;7.18;;;4.03;;
14118;SDS011;7138;49.246;9.100;2023-11-19T00:34:49;5.78;;;4.07;;
14118;SDS011;7138;49.246;9.100;2023-11-19T00:37:16;6.93;;;4.25;;
14118;SDS011;7138;49.246;9.100;2023-11-19T00:39:42;6.18;;;3.97;;
14118;SDS011;7138;49.246;9.100;2023-11-19T00:42:12;8.52;;;4.35;;
14118;SDS011;7138;49.246;9.100;2023-11-19T00:44:39;6.80;;;4.13;;
14118;SDS011;7138;49.246;9.100;2023-11-19T00:47:06;7.95;;;4.90;;
14118;SDS011;7138;49.246;9.100;2023-11-19T00:49:31;7.47;;;4.75;;
14118;SDS011;7138;49.246;9.100;2023-11-19T00:52:00;6.82;;;4.25;;
14118;SDS011;7138;49.246;9.100;2023-11-19T00:54:27;6.65;;;4.20;;
14118;SDS011;7138;49.246;9.100;2023-11-19T00:56:53;7.95;;;4.38;;
14118;SDS011;7138;49.246;9.100;2023-11-19T00:59:20;6.90;;;4.82;;
14118;SDS011;7138;49.246;9.100;2023-11-19T01:01:46;8.80;;;4.55;;
14118;SDS011;7138;49.246;9.100;2023-11-19T01:04:18;6.90;;;4.38;;
14118;SDS011;7138;49.246;9.100;2023-11-19T01:06:44;6.88;;;4.57;;
14118;SDS011;7138;49.246;9.100;2023-11-19T01:09:10;7.15;;;4.88;;
14118;SDS011;7138;49.246;9.100;2023-11-19T01:11:36;7.38;;;5.10;;
14118;SDS011;7138;49.246;9.100;2023-11-19T01:14:02;6.35;;;4.75;;
14118;SDS011;7138;49.246;9.100;2023-11-19T01:16:29;7.03;;;4.70;;
14118;SDS011;7138;49.246;9.100;2023-11-19T01:18:55;6.95;;;4.32;;
14118;SDS011;7138;49.246;9.100;2023-11-19T01:21:21;7.72;;;4.75;;
14118;SDS011;7138;49.246;9.100;2023-11-19T01:23:47;7.80;;;5.20;;
14118;SDS011;7138;49.246;9.100;2023-11-19T01:26:13;7.80;;;4.95;;
14118;SDS011;7138;49.246;9.100;2023-11-19T01:28:39;7.70;;;5.22;;
14118;SDS011;7138;49.246;9.100;2023-11-19T01:31:09;8.10;;;4.68;;
14118;SDS011;7138;49.246;9.100;2023-11-19T01:33:37;8.30;;;5.30;;
14118;SDS011;7138;49.246;9.100;2023-11-19T01:36:03;7.50;;;5.10;;
14118;SDS011;7138;49.246;9.100;2023-11-19T01:38:30;8.95;;;5.20;;
14118;SDS011;7138;49.246;9.100;2023-11-19T01:40:56;8.05;;;5.38;;
14118;SDS011;7138;49.246;9.100;2023-11-19T01:43:30;7.97;;;4.82;;
14118;SDS011;7138;49.246;9.100;2023-11-19T01:45:58;8.35;;;5.10;;
14118;SDS011;7138;49.246;9.100;2023-11-19T01:48:24;7.20;;;5.00;;
14118;SDS011;7138;49.246;9.100;2023-11-19T01:50:52;7.95;;;5.13;;
14118;SDS011;7138;49.246;9.100;2023-11-19T01:53:18;7.90;;;5.22;;
14118;SDS011;7138;49.246;9.100;2023-11-19T01:55:46;7.28;;;5.03;;
14118;SDS011;7138;49.246;9.100;2023-11-19T01:58:13;8.23;;;5.47;;
14118;SDS011;7138;49.246;9.100;2023-11-19T02:00:39;7.20;;;4.80;;
14118;SDS011;7138;49.246;9.100;2023-11-19T02:03:06;8.15;;;5.10;;
14118;SDS011;7138;49.246;9.100;2023-11-19T02:05:33;10.68;;;5.80;;
14118;SDS011;7138;49.246;9.100;2023-11-19T02:08:01;11.65;;;5.85;;
14118;SDS011;7138;49.246;9.100;2023-11-19T02:10:28;8.43;;;5.43;;
14118;SDS011;7138;49.246;9.100;2023-11-19T02:12:54;9.93;;;5.53;;
14118;SDS011;7138;49.246;9.100;2023-11-19T02:15:20;10.32;;;6.00;;
14118;SDS011;7138;49.246;9.100;2023-11-19T02:17:49;8.70;;;5.57;;
14118;SDS011;7138;49.246;9.100;2023-11-19T02:20:16;10.15;;;5.53;;
14118;SDS011;7138;49.246;9.100;2023-11-19T02:22:41;7.60;;;5.25;;
14118;SDS011;7138;49.246;9.100;2023-11-19T02:25:12;6.82;;;4.90;;
14118;SDS011;7138;49.246;9.100;2023-11-19T02:27:48;8.88;;;5.55;;
14118;SDS011;7138;49.246;9.100;2023-11-19T02:30:22;7.47;;;5.10;;
14118;SDS011;7138;49.246;9.100;2023-11-19T02:32:51;8.15;;;5.40;;
14118;SDS011;7138;49.246;9.100;2023-11-19T02:35:18;8.00;;;5.53;;
14118;SDS011;7138;49.246;9.100;2023-11-19T02:37:44;8.77;;;5.53;;
14118;SDS011;7138;49.246;9.100;2023-11-19T02:40:10;9.13;;;5.97;;
14118;SDS011;7138;49.246;9.100;2023-11-19T02:42:36;9.95;;;5.70;;
14118;SDS011;7138;49.246;9.100;2023-11-19T02:45:03;9.32;;;5.90;;
14118;SDS011;7138;49.246;9.100;2023-11-19T02:47:31;8.63;;;6.03;;
14118;SDS011;7138;49.246;9.100;2023-11-19T02:49:58;9.25;;;5.60;;
14118;SDS011;7138;49.246;9.100;2023-11-19T02:52:24;9.25;;;5.97;;
14118;SDS011;7138;49.246;9.100;2023-11-19T02:54:50;9.48;;;5.90;;
14118;SDS011;7138;49.246;9.100;2023-11-19T02:57:17;8.30;;;5.90;;
14118;SDS011;7138;49.246;9.100;2023-11-19T02:59:46;11.37;;;6.70;;
14118;SDS011;7138;49.246;9.100;2023-11-19T03:02:13;10.93;;;6.82;;
14118;SDS011;7138;49.246;9.100;2023-11-19T03:04:41;10.45;;;6.82;;
14118;SDS011;7138;49.246;9.100;2023-11-19T03:07:08;9.50;;;6.20;;
14118;SDS011;7138;49.246;9.100;2023-11-19T03:09:34;10.15;;;6.75;;
14118;SDS011;7138;49.246;9.100;2023-11-19T03:12:00;9.98;;;6.80;;
14118;SDS011;7138;49.246;9.100;2023-11-19T03:14:27;10.43;;;6.85;;
14118;SDS011;7138;49.246;9.100;2023-11-19T03:16:53;9.75;;;5.97;;
14118;SDS011;7138;49.246;9.100;2023-11-19T03:19:20;10.30;;;6.75;;
14118;SDS011;7138;49.246;9.100;2023-11-19T03:21:46;10.55;;;6.80;;
14118;SDS011;7138;49.246;9.100;2023-11-19T03:24:13;9.75;;;6.53;;
14118;SDS011;7138;49.246;9.100;2023-11-19T03:26:39;10.68;;;6.45;;
14118;SDS011;7138;49.246;9.100;2023-11-19T03:29:05;11.13;;;6.80;;
14118;SDS011;7138;49.246;9.100;2023-11-19T03:31:31;12.15;;;7.22;;
14118;SDS011;7138;49.246;9.100;2023-11-19T03:33:57;11.27;;;7.82;;
14118;SDS011;7138;49.246;9.100;2023-11-19T03:36:24;10.15;;;7.10;;
14118;SDS011;7138;49.246;9.100;2023-11-19T03:38:50;11.05;;;7.07;;
14118;SDS011;7138;49.246;9.100;2023-11-19T03:41:17;10.98;;;7.00;;
14118;SDS011;7138;49.246;9.100;2023-11-19T03:43:43;11.35;;;7.38;;
14118;SDS011;7138;49.246;9.100;2023-11-19T03:46:16;12.18;;;7.80;;
14118;SDS011;7138;49.246;9.100;2023-11-19T03:48:43;10.65;;;6.63;;
14118;SDS011;7138;49.246;9.100;2023-11-19T03:51:08;10.93;;;7.10;;
14118;SDS011;7138;49.246;9.100;2023-11-19T03:53:36;10.10;;;7.13;;
14118;SDS011;7138;49.246;9.100;2023-11-19T03:56:01;13.02;;;6.65;;
14118;SDS011;7138;49.246;9.100;2023-11-19T03:58:28;9.75;;;6.38;;
14118;SDS011;7138;49.246;9.100;2023-11-19T04:00:54;10.55;;;6.43;;
14118;SDS011;7138;49.246;9.100;2023-11-19T04:03:20;11.13;;;6.47;;
14118;SDS011;7138;49.246;9.100;2023-11-19T04:05:46;9.40;;;5.47;;
14118;SDS011;7138;49.246;9.100;2023-11-19T04:08:12;7.82;;;4.47;;
14118;SDS011;7138;49.246;9.100;2023-11-19T04:10:39;6.05;;;4.07;;
14118;SDS011;7138;49.246;9.100;2023-11-19T04:13:05;4.10;;;2.55;;
14118;SDS011;7138;49.246;9.100;2023-11-19T04:15:30;2.88;;;1.60;;
14118;SDS011;7138;49.246;9.100;2023-11-19T04:17:56;2.97;;;1.20;;
14118;SDS011;7138;49.246;9.100;2023-11-19T04:20:22;2.10;;;0.70;;
14118;SDS011;7138;49.246;9.100;2023-11-19T04:22:49;2.20;;;0.75;;
14118;SDS011;7138;49.246;9.100;2023-11-19T04:25:16;1.80;;;0.85;;
14118;SDS011;7138;49.246;9.100;2023-11-19T04:27:45;1.40;;;0.60;;
14118;SDS011;7138;49.246;9.100;2023-11-19T04:30:13;1.67;;;0.60;;
14118;SDS011;7138;49.246;9.100;2023-11-19T04:32:39;2.20;;;0.73;;
14118;SDS011;7138;49.246;9.100;2023-11-19T04:35:05;1.08;;;0.43;;
14118;SDS011;7138;49.246;9.100;2023-11-19T04:37:32;1.48;;;0.40;;
14118;SDS011;7138;49.246;9.100;2023-11-19T04:39:58;1.95;;;0.68;;
14118;SDS011;7138;49.246;9.100;2023-11-19T04:42:25;2.55;;;0.55;;
14118;SDS011;7138;49.246;9.100;2023-11-19T04:44:52;2.20;;;0.60;;
14118;SDS011;7138;49.246;9.100;2023-11-19T04:47:18;1.58;;;0.60;;
14118;SDS011;7138;49.246;9.100;2023-11-19T04:49:43;0.88;;;0.40;;
14118;SDS011;7138;49.246;9.100;2023-11-19T04:52:09;1.95;;;0.60;;
14118;SDS011;7138;49.246;9.100;2023-11-19T04:54:40;1.90;;;0.90;;
14118;SDS011;7138;49.246;9.100;2023-11-19T04:57:07;2.10;;;0.70;;
14118;SDS011;7138;49.246;9.100;2023-11-19T04:59:35;1.42;;;0.50;;
14118;SDS011;7138;49.246;9.100;2023-11-19T05:02:03;2.47;;;0.75;;
14118;SDS011;7138;49.246;9.100;2023-11-19T05:04:29;1.52;;;0.60;;
14118;SDS011;7138;49.246;9.100;2023-11-19T05:06:55;2.60;;;0.70;;
14118;SDS011;7138;49.246;9.100;2023-11-19T05:09:21;3.90;;;0.90;;
14118;SDS011;7138;49.246;9.100;2023-11-19T05:11:47;2.95;;;0.90;;
14118;SDS011;7138;49.246;9.100;2023-11-19T05:14:13;3.22;;;0.88;;
14118;SDS011;7138;49.246;9.100;2023-11-19T05:16:39;2.72;;;0.80;;
14118;SDS011;7138;49.246;9.100;2023-11-19T05:19:07;2.28;;;0.80;;
14118;SDS011;7138;49.246;9.100;2023-11-19T05:21:33;3.10;;;0.93;;
14118;SDS011;7138;49.246;9.100;2023-11-19T05:24:00;2.40;;;0.80;;
14118;SDS011;7138;49.246;9.100;2023-11-19T05:26:29;2.83;;;0.80;;
14118;SDS011;7138;49.246;9.100;2023-11-19T05:28:55;3.10;;;0.70;;
14118;SDS011;7138;49.246;9.100;2023-11-19T05:31:21;2.67;;;0.80;;
14118;SDS011;7138;49.246;9.100;2023-11-19T05:33:47;2.03;;;0.77;;
14118;SDS011;7138;49.246;9.100;2023-11-19T05:36:14;2.33;;;0.68;;
14118;SDS011;7138;49.246;9.100;2023-11-19T05:38:40;2.42;;;1.00;;
14118;SDS011;7138;49.246;9.100;2023-11-19T05:41:06;1.90;;;0.77;;
14118;SDS011;7138;49.246;9.100;2023-11-19T05:43:32;2.55;;;0.93;;
14118;SDS011;7138;49.246;9.100;2023-11-19T05:45:59;2.00;;;0.77;;
14118;SDS011;7138;49.246;9.100;2023-11-19T05:48:26;2.40;;;0.70;;
14118;SDS011;7138;49.246;9.100;2023-11-19T05:50:52;2.50;;;0.90;;
14118;SDS011;7138;49.246;9.100;2023-11-19T05:53:20;2.85;;;0.80;;
14118;SDS011;7138;49.246;9.100;2023-11-19T05:55:45;2.88;;;0.73;;
14118;SDS011;7138;49.246;9.100;2023-11-19T05:58:19;2.38;;;0.95;;
14118;SDS011;7138;49.246;9.100;2023-11-19T06:00:48;3.90;;;0.70;;
14118;SDS011;7138;49.246;9.100;2023-11-19T06:03:15;2.58;;;0.73;;
14118;SDS011;7138;49.246;9.100;2023-11-19T06:05:41;2.08;;;0.90;;
14118;SDS011;7138;49.246;9.100;2023-11-19T06:08:09;2.80;;;0.88;;
14118;SDS011;7138;49.246;9.100;2023-11-19T06:10:37;2.88;;;0.77;;
14118;SDS011;7138;49.246;9.100;2023-11-19T06:13:03;2.35;;;0.77;;
14118;SDS011;7138;49.246;9.100;2023-11-19T06:15:30;3.00;;;0.80;;
14118;SDS011;7138;49.246;9.100;2023-11-19T06:17:58;1.67;;;0.60;;
14118;SDS011;7138;49.246;9.100;2023-11-19T06:20:26;2.70;;;0.70;;
14118;SDS011;7138;49.246;9.100;2023-11-19T06:22:54;1.88;;;0.80;;
14118;SDS011;7138;49.246;9.100;2023-11-19T06:25:20;3.33;;;0.70;;
14118;SDS011;7138;49.246;9.100;2023-11-19T06:27:47;1.48;;;0.50;;
14118;SDS011;7138;49.246;9.100;2023-11-19T06:30:13;2.25;;;0.73;;
14118;SDS011;7138;49.246;9.100;2023-11-19T06:32:39;1.63;;;0.55;;
14118;SDS011;7138;49.246;9.100;2023-11-19T06:35:05;1.63;;;0.60;;
14118;SDS011;7138;49.246;9.100;2023-11-19T06:37:31;2.28;;;0.60;;
14118;SDS011;7138;49.246;9.100;2023-11-19T06:39:57;1.67;;;0.43;;
14118;SDS011;7138;49.246;9.100;2023-11-19T06:42:24;2.08;;;0.40;;
14118;SDS011;7138;49.246;9.100;2023-11-19T06:44:51;3.35;;;0.50;;
14118;SDS011;7138;49.246;9.100;2023-11-19T06:47:17;1.05;;;0.38;;
14118;SDS011;7138;49.246;9.100;2023-11-19T06:49:43;1.08;;;0.40;;
14118;SDS011;7138;49.246;9.100;2023-11-19T06:52:09;1.63;;;0.40;;
14118;SDS011;7138;49.246;9.100;2023-11-19T06:54:35;1.48;;;0.60;;
14118;SDS011;7138;49.246;9.100;2023-11-19T06:57:03;2.00;;;0.30;;
14118;SDS011;7138;49.246;9.100;2023-11-19T06:59:30;5.25;;;1.30;;
14118;SDS011;7138;49.246;9.100;2023-11-19T07:01:57;0.93;;;0.35;;
14118;SDS011;7138;49.246;9.100;2023-11-19T07:04:24;2.72;;;0.50;;
14118;SDS011;7138;49.246;9.100;2023-11-19T07:06:50;2.03;;;0.30;;
14118;SDS011;7138;49.246;9.100;2023-11-19T07:09:18;0.98;;;0.30;;
14118;SDS011;7138;49.246;9.100;2023-11-19T07:11:44;2.25;;;0.40;;
14118;SDS011;7138;49.246;9.100;2023-11-19T07:14:10;0.90;;;0.40;;
14118;SDS011;7138;49.246;9.100;2023-11-19T07:16:37;2.13;;;0.40;;
14118;SDS011;7138;49.246;9.100;2023-11-19T07:19:05;1.08;;;0.30;;
14118;SDS011;7138;49.246;9.100;2023-11-19T07:21:31;0.85;;;0.40;;
14118;SDS011;7138;49.246;9.100;2023-11-19T07:24:04;0.95;;;0.25;;
14118;SDS011;7138;49.246;9.100;2023-11-19T07:26:32;1.08;;;0.30;;
14118;SDS011;7138;49.246;9.100;2023-11-19T07:28:58;1.17;;;0.40;;
14118;SDS011;7138;49.246;9.100;2023-11-19T07:31:24;1.30;;;0.38;;
14118;SDS011;7138;49.246;9.100;2023-11-19T07:33:49;1.67;;;0.60;;
14118;SDS011;7138;49.246;9.100;2023-11-19T07:36:17;1.40;;;0.40;;
14118;SDS011;7138;49.246;9.100;2023-11-19T07:38:43;1.80;;;0.50;;
14118;SDS011;7138;49.246;9.100;2023-11-19T07:41:10;1.65;;;0.40;;
14118;SDS011;7138;49.246;9.100;2023-11-19T07:43:38;2.53;;;0.50;;
14118;SDS011;7138;49.246;9.100;2023-11-19T07:46:04;1.95;;;0.30;;
14118;SDS011;7138;49.246;9.100;2023-11-19T07:48:35;1.65;;;0.40;;
14118;SDS011;7138;49.246;9.100;2023-11-19T07:51:01;2.45;;;0.80;;
14118;SDS011;7138;49.246;9.100;2023-11-19T07:53:28;1.48;;;0.30;;
14118;SDS011;7138;49.246;9.100;2023-11-19T07:55:54;4.22;;;0.30;;
14118;SDS011;7138;49.246;9.100;2023-11-19T07:58:20;1.40;;;0.50;;
14118;SDS011;7138;49.246;9.100;2023-11-19T08:00:46;2.30;;;0.38;;
14118;SDS011;7138;49.246;9.100;2023-11-19T08:03:12;1.63;;;0.32;;
14118;SDS011;7138;49.246;9.100;2023-11-19T08:05:38;0.65;;;0.25;;
14118;SDS011;7138;49.246;9.100;2023-11-19T08:08:04;0.98;;;0.30;;
14118;SDS011;7138;49.246;9.100;2023-11-19T08:10:31;0.73;;;0.22;;
14118;SDS011;7138;49.246;9.100;2023-11-19T08:15:26;1.35;;;0.40;;
14118;SDS011;7138;49.246;9.100;2023-11-19T08:17:52;1.52;;;0.38;;
14118;SDS011;7138;49.246;9.100;2023-11-19T08:20:18;1.27;;;0.30;;
14118;SDS011;7138;49.246;9.100;2023-11-19T08:22:44;1.33;;;0.45;;
14118;SDS011;7138;49.246;9.100;2023-11-19T08:25:10;1.55;;;0.30;;
14118;SDS011;7138;49.246;9.100;2023-11-19T08:27:37;1.42;;;0.30;;
14118;SDS011;7138;49.246;9.100;2023-11-19T08:30:03;1.20;;;0.30;;
14118;SDS011;7138;49.246;9.100;2023-11-19T08:32:31;1.42;;;0.40;;
14118;SDS011;7138;49.246;9.100;2023-11-19T08:34:57;1.40;;;0.40;;
14118;SDS011;7138;49.246;9.100;2023-11-19T08:37:23;2.67;;;0.38;;
14118;SDS011;7138;49.246;9.100;2023-11-19T08:39:49;1.55;;;0.50;;
14118;SDS011;7138;49.246;9.100;2023-11-19T08:42:16;1.40;;;0.50;;
14118;SDS011;7138;49.246;9.100;2023-11-19T08:44:43;0.77;;;0.25;;
14118;SDS011;7138;49.246;9.100;2023-11-19T08:47:16;1.42;;;0.50;;
14118;SDS011;7138;49.246;9.100;2023-11-19T08:49:45;0.82;;;0.30;;
14118;SDS011;7138;49.246;9.100;2023-11-19T08:52:11;1.63;;;0.50;;
14118;SDS011;7138;49.246;9.100;2023-11-19T08:54:37;2.83;;;0.50;;
14118;SDS011;7138;49.246;9.100;2023-11-19T08:57:03;1.23;;;0.40;;
14118;SDS011;7138;49.246;9.100;2023-11-19T08:59:29;1.20;;;0.40;;
14118;SDS011;7138;49.246;9.100;2023-11-19T09:01:57;0.65;;;0.22;;
14118;SDS011;7138;49.246;9.100;2023-11-19T09:04:22;1.50;;;0.40;;
14118;SDS011;7138;49.246;9.100;2023-11-19T09:06:48;2.05;;;0.43;;
14118;SDS011;7138;49.246;9.100;2023-11-19T09:09:14;3.03;;;0.52;;
14118;SDS011;7138;49.246;9.100;2023-11-19T09:11:40;2.38;;;0.40;;
14118;SDS011;7138;49.246;9.100;2023-11-19T09:14:06;3.17;;;0.60;;
14118;SDS011;7138;49.246;9.100;2023-11-19T09:16:32;1.60;;;0.38;;
14118;SDS011;7138;49.246;9.100;2023-11-19T09:18:59;3.33;;;0.65;;
14118;SDS011;7138;49.246;9.100;2023-11-19T09:21:27;1.40;;;0.40;;
14118;SDS011;7138;49.246;9.100;2023-11-19T09:23:54;3.63;;;0.43;;
14118;SDS011;7138;49.246;9.100;2023-11-19T09:26:20;2.80;;;0.55;;
14118;SDS011;7138;49.246;9.100;2023-11-19T09:28:46;4.18;;;0.55;;
14118;SDS011;7138;49.246;9.100;2023-11-19T09:31:15;1.65;;;0.40;;
14118;SDS011;7138;49.246;9.100;2023-11-19T09:33:41;2.38;;;0.43;;
14118;SDS011;7138;49.246;9.100;2023-11-19T09:36:10;2.90;;;0.60;;
14118;SDS011;7138;49.246;9.100;2023-11-19T09:38:38;1.65;;;0.40;;
14118;SDS011;7138;49.246;9.100;2023-11-19T09:41:05;2.63;;;0.60;;
14118;SDS011;7138;49.246;9.100;2023-11-19T09:43:35;1.75;;;0.50;;
14118;SDS011;7138;49.246;9.100;2023-11-19T09:46:04;1.73;;;0.50;;
14118;SDS011;7138;49.246;9.100;2023-11-19T09:48:35;3.72;;;0.50;;
14118;SDS011;7138;49.246;9.100;2023-11-19T09:51:03;2.15;;;0.57;;
14118;SDS011;7138;49.246;9.100;2023-11-19T09:53:32;1.90;;;0.50;;
14118;SDS011;7138;49.246;9.100;2023-11-19T09:55:58;2.55;;;0.70;;
14118;SDS011;7138;49.246;9.100;2023-11-19T09:58:28;2.75;;;0.57;;
14118;SDS011;7138;49.246;9.100;2023-11-19T10:00:55;2.42;;;0.70;;
14118;SDS011;7138;49.246;9.100;2023-11-19T10:03:24;3.13;;;0.50;;
14118;SDS011;7138;49.246;9.100;2023-11-19T10:05:52;1.90;;;0.77;;
14118;SDS011;7138;49.246;9.100;2023-11-19T10:08:19;3.58;;;0.55;;
14118;SDS011;7138;49.246;9.100;2023-11-19T10:10:47;2.42;;;0.60;;
14118;SDS011;7138;49.246;9.100;2023-11-19T10:13:13;0.88;;;0.30;;
14118;SDS011;7138;49.246;9.100;2023-11-19T10:15:39;2.58;;;1.02;;
14118;SDS011;7138;49.246;9.100;2023-11-19T10:18:06;1.83;;;0.50;;
14118;SDS011;7138;49.246;9.100;2023-11-19T10:20:35;0.95;;;0.30;;
14118;SDS011;7138;49.246;9.100;2023-11-19T10:23:02;1.25;;;0.40;;
14118;SDS011;7138;49.246;9.100;2023-11-19T10:25:28;2.33;;;0.50;;
14118;SDS011;7138;49.246;9.100;2023-11-19T10:27:56;1.63;;;0.43;;
14118;SDS011;7138;49.246;9.100;2023-11-19T10:30:22;4.85;;;0.70;;
14118;SDS011;7138;49.246;9.100;2023-11-19T10:33:02;1.40;;;0.40;;
14118;SDS011;7138;49.246;9.100;2023-11-19T10:35:31;2.40;;;0.40;;
14118;SDS011;7138;49.246;9.100;2023-11-19T10:37:58;2.15;;;0.40;;
14118;SDS011;7138;49.246;9.100;2023-11-19T10:40:37;2.17;;;0.52;;
14118;SDS011;7138;49.246;9.100;2023-11-19T10:43:06;4.13;;;0.67;;
14118;SDS011;7138;49.246;9.100;2023-11-19T10:45:36;2.53;;;1.10;;
14118;SDS011;7138;49.246;9.100;2023-11-19T10:48:04;3.92;;;0.60;;
14118;SDS011;7138;49.246;9.100;2023-11-19T10:50:32;2.85;;;0.50;;
14118;SDS011;7138;49.246;9.100;2023-11-19T10:53:02;3.88;;;0.68;;
14118;SDS011;7138;49.246;9.100;2023-11-19T10:55:35;3.42;;;0.75;;
14118;SDS011;7138;49.246;9.100;2023-11-19T10:58:07;1.40;;;0.40;;
14118;SDS011;7138;49.246;9.100;2023-11-19T11:00:38;4.40;;;0.70;;
14118;SDS011;7138;49.246;9.100;2023-11-19T11:03:15;2.58;;;0.50;;
14118;SDS011;7138;49.246;9.100;2023-11-19T11:05:43;2.35;;;0.60;;
14118;SDS011;7138;49.246;9.100;2023-11-19T11:08:13;1.95;;;0.70;;
14118;SDS011;7138;49.246;9.100;2023-11-19T11:10:42;1.35;;;0.43;;
14118;SDS011;7138;49.246;9.100;2023-11-19T11:13:11;1.80;;;0.60;;
14118;SDS011;7138;49.246;9.100;2023-11-19T11:15:39;1.77;;;0.40;;
14118;SDS011;7138;49.246;9.100;2023-11-19T11:18:07;2.70;;;0.60;;
14118;SDS011;7138;49.246;9.100;2023-11-19T11:20:34;2.63;;;0.47;;
14118;SDS011;7138;49.246;9.100;2023-11-19T11:23:06;3.53;;;0.80;;
14118;SDS011;7138;49.246;9.100;2023-11-19T11:26:05;2.15;;;0.52;;
14118;SDS011;7138;49.246;9.100;2023-11-19T11:29:01;1.83;;;0.47;;
14118;SDS011;7138;49.246;9.100;2023-11-19T11:31:32;2.17;;;0.40;;
14118;SDS011;7138;49.246;9.100;2023-11-19T11:34:27;3.50;;;0.60;;
14118;SDS011;7138;49.246;9.100;2023-11-19T11:37:16;1.73;;;0.60;;
14118;SDS011;7138;49.246;9.100;2023-11-19T11:39:46;2.53;;;0.50;;
14118;SDS011;7138;49.246;9.100;2023-11-19T11:42:31;1.30;;;0.40;;
14118;SDS011;7138;49.246;9.100;2023-11-19T11:45:02;3.88;;;0.63;;
14118;SDS011;7138;49.246;9.100;2023-11-19T11:50:47;4.05;;;0.68;;
14118;SDS011;7138;49.246;9.100;2023-11-19T11:53:16;4.72;;;0.77;;
14118;SDS011;7138;49.246;9.100;2023-11-19T11:58:30;3.72;;;0.70;;
14118;SDS011;7138;49.246;9.100;2023-11-19T12:01:00;2.63;;;0.68;;
14118;SDS011;7138;49.246;9.100;2023-11-19T12:03:30;2.15;;;0.50;;
14118;SDS011;7138;49.246;9.100;2023-11-19T12:05:57;2.63;;;0.60;;
14118;SDS011;7138;49.246;9.100;2023-11-19T12:08:27;2.53;;;0.55;;
14118;SDS011;7138;49.246;9.100;2023-11-19T12:10:55;3.08;;;0.88;;
14118;SDS011;7138;49.246;9.100;2023-11-19T12:13:23;2.10;;;0.52;;
14118;SDS011;7138;49.246;9.100;2023-11-19T12:16:09;2.47;;;0.60;;
14118;SDS011;7138;49.246;9.100;2023-11-19T12:18:36;2.38;;;0.60;;
14118;SDS011;7138;49.246;9.100;2023-11-19T12:21:05;2.38;;;0.70;;
14118;SDS011;7138;49.246;9.100;2023-11-19T12:23:34;2.00;;;0.60;;
14118;SDS011;7138;49.246;9.100;2023-11-19T12:26:08;2.42;;;0.65;;
14118;SDS011;7138;49.246;9.100;2023-11-19T12:28:57;2.63;;;0.65;;
14118;SDS011;7138;49.246;9.100;2023-11-19T12:31:25;2.30;;;0.65;;
14118;SDS011;7138;49.246;9.100;2023-11-19T12:33:51;3.45;;;0.90;;
14118;SDS011;7138;49.246;9.100;2023-11-19T12:36:18;3.05;;;0.50;;
14118;SDS011;7138;49.246;9.100;2023-11-19T12:38:44;3.30;;;0.75;;
14118;SDS011;7138;49.246;9.100;2023-11-19T12:41:11;4.07;;;0.77;;
14118;SDS011;7138;49.246;9.100;2023-11-19T12:43:38;3.67;;;0.50;;
14118;SDS011;7138;49.246;9.100;2023-11-19T12:46:16;1.52;;;0.47;;
14118;SDS011;7138;49.246;9.100;2023-11-19T12:48:45;4.60;;;0.75;;
14118;SDS011;7138;49.246;9.100;2023-11-19T12:51:12;2.85;;;0.82;;
14118;SDS011;7138;49.246;9.100;2023-11-19T12:53:47;3.05;;;0.98;;
14118;SDS011;7138;49.246;9.100;2023-11-19T12:56:19;2.38;;;0.60;;
14118;SDS011;7138;49.246;9.100;2023-11-19T12:58:46;1.70;;;0.52;;
14118;SDS011;7138;49.246;9.100;2023-11-19T13:01:15;1.75;;;0.50;;
14118;SDS011;7138;49.246;9.100;2023-11-19T13:03:43;5.65;;;0.80;;
14118;SDS011;7138;49.246;9.100;2023-11-19T13:06:11;2.92;;;0.55;;
14118;SDS011;7138;49.246;9.100;2023-11-19T13:08:41;1.55;;;0.50;;
14118;SDS011;7138;49.246;9.100;2023-11-19T13:11:09;2.90;;;0.70;;
14118;SDS011;7138;49.246;9.100;2023-11-19T13:13:54;3.25;;;0.65;;
14118;SDS011;7138;49.246;9.100;2023-11-19T13:16:21;3.15;;;0.68;;
14118;SDS011;7138;49.246;9.100;2023-11-19T13:18:48;3.85;;;0.80;;
14118;SDS011;7138;49.246;9.100;2023-11-19T13:21:14;1.77;;;0.50;;
14118;SDS011;7138;49.246;9.100;2023-11-19T13:23:40;3.70;;;0.70;;
14118;SDS011;7138;49.246;9.100;2023-11-19T13:26:06;3.03;;;0.60;;
14118;SDS011;7138;49.246;9.100;2023-11-19T13:28:32;2.17;;;0.85;;
14118;SDS011;7138;49.246;9.100;2023-11-19T13:30:58;4.25;;;0.70;;
14118;SDS011;7138;49.246;9.100;2023-11-19T13:33:24;2.88;;;0.65;;
14118;SDS011;7138;49.246;9.100;2023-11-19T13:35:52;2.03;;;0.57;;
14118;SDS011;7138;49.246;9.100;2023-11-19T13:38:18;3.90;;;0.60;;
14118;SDS011;7138;49.246;9.100;2023-11-19T13:40:44;2.45;;;0.65;;
14118;SDS011;7138;49.246;9.100;2023-11-19T13:43:10;3.83;;;0.70;;
14118;SDS011;7138;49.246;9.100;2023-11-19T13:45:36;2.30;;;0.52;;
14118;SDS011;7138;49.246;9.100;2023-11-19T13:48:02;3.97;;;0.70;;
14118;SDS011;7138;49.246;9.100;2023-11-19T13:50:28;2.80;;;0.57;;
14118;SDS011;7138;49.246;9.100;2023-11-19T13:52:56;2.72;;;0.50;;
14118;SDS011;7138;49.246;9.100;2023-11-19T13:55:22;2.10;;;0.57;;
14118;SDS011;7138;49.246;9.100;2023-11-19T13:57:47;3.70;;;0.80;;
14118;SDS011;7138;49.246;9.100;2023-11-19T14:00:14;6.82;;;0.90;;
14118;SDS011;7138;49.246;9.100;2023-11-19T14:02:45;2.25;;;0.75;;
14118;SDS011;7138;49.246;9.100;2023-11-19T14:05:12;2.10;;;0.47;;
14118;SDS011;7138;49.246;9.100;2023-11-19T14:07:42;2.90;;;0.70;;
14118;SDS011;7138;49.246;9.100;2023-11-19T14:10:10;2.90;;;0.70;;
14118;SDS011;7138;49.246;9.100;2023-11-19T14:12:36;4.13;;;0.70;;
14118;SDS011;7138;49.246;9.100;2023-11-19T14:15:03;2.40;;;0.60;;
14118;SDS011;7138;49.246;9.100;2023-11-19T14:17:31;4.70;;;1.10;;
14118;SDS011;7138;49.246;9.100;2023-11-19T14:19:57;3.90;;;0.60;;
14118;SDS011;7138;49.246;9.100;2023-11-19T14:22:23;5.07;;;0.80;;
14118;SDS011;7138;49.246;9.100;2023-11-19T14:24:49;5.18;;;0.68;;
14118;SDS011;7138;49.246;9.100;2023-11-19T14:27:17;3.60;;;0.70;;
14118;SDS011;7138;49.246;9.100;2023-11-19T14:29:43;3.97;;;0.88;;
14118;SDS011;7138;49.246;9.100;2023-11-19T14:32:11;3.57;;;0.80;;
14118;SDS011;7138;49.246;9.100;2023-11-19T14:34:38;3.30;;;0.60;;
14118;SDS011;7138;49.246;9.100;2023-11-19T14:37:03;2.75;;;0.65;;
14118;SDS011;7138;49.246;9.100;2023-11-19T14:39:29;4.55;;;0.70;;
14118;SDS011;7138;49.246;9.100;2023-11-19T14:41:59;2.55;;;0.70;;
14118;SDS011;7138;49.246;9.100;2023-11-19T14:44:30;3.67;;;0.60;;
14118;SDS011;7138;49.246;9.100;2023-11-19T14:46:56;3.00;;;0.77;;
14118;SDS011;7138;49.246;9.100;2023-11-19T14:49:22;3.75;;;0.73;;
14118;SDS011;7138;49.246;9.100;2023-11-19T14:51:49;2.35;;;0.70;;
14118;SDS011;7138;49.246;9.100;2023-11-19T14:54:14;4.93;;;1.00;;
14118;SDS011;7138;49.246;9.100;2023-11-19T14:56:41;3.85;;;0.70;;
14118;SDS011;7138;49.246;9.100;2023-11-19T14:59:07;4.40;;;0.90;;
14118;SDS011;7138;49.246;9.100;2023-11-19T15:01:34;4.65;;;0.93;;
14118;SDS011;7138;49.246;9.100;2023-11-19T15:04:00;4.45;;;0.60;;
14118;SDS011;7138;49.246;9.100;2023-11-19T15:06:26;2.72;;;0.70;;
14118;SDS011;7138;49.246;9.100;2023-11-19T15:08:52;4.32;;;0.80;;
14118;SDS011;7138;49.246;9.100;2023-11-19T15:11:19;3.10;;;0.73;;